WetterOnline ( https://www.wetteronline.de )

Wetter aktuell Dierberg

Aktuelles Wetter: Kyritz (42m)

6-stündlich | Neueste Meldungen
Ortszeit Temperatur Wetter
Di, 21.05. 14:00 21.6° C wolkig
Di, 21.05. 8:00 14.1° C bedeckt
Di, 21.05. 2:00 15.3° C bedeckt
Mo, 20.05. 20:00 17.3° C leichter Regen
Mo, 20.05. 14:00 24.9° C leicht bewölkt
Mo, 20.05. 8:00 14.3° C bewölkt
Mo, 20.05. 2:00 14.1° C wolkenlos
So, 19.05. 20:00 21.4° C wolkig
Ortszeit Temperatur Wetter
Di, 21.05. 19:00 21.1° C wolkig
Di, 21.05. 18:50 21.1° C wolkig
Di, 21.05. 18:40 21.3° C bedeckt
Di, 21.05. 18:30 21.8° C bedeckt
Di, 21.05. 18:20 21.8° C bedeckt
Di, 21.05. 18:10 21.5° C bedeckt
Di, 21.05. 18:00 21.8° C bedeckt
Di, 21.05. 17:30 23.5° C bewölkt
Di, 21.05. 17:00 24.0° C leicht bewölkt
Di, 21.05. 16:30 23.6° C wolkig
Di, 21.05. 16:00 23.9° C wolkig
Ortszeit Relative Feuchte Sichtweite
Di, 21.05. 14:00 55% -
Di, 21.05. 8:00 98% 4.9 km
Di, 21.05. 2:00 96% 5.0 km
Mo, 20.05. 20:00 90% 10 km
Mo, 20.05. 14:00 43% 35 km
Mo, 20.05. 8:00 89% 7 km
Mo, 20.05. 2:00 90% 20 km
So, 19.05. 20:00 48% 45 km
Ortszeit Relative Feuchte Sichtweite
Di, 21.05. 19:00 66% 17 km
Di, 21.05. 18:50 66% -
Di, 21.05. 18:40 65% -
Di, 21.05. 18:30 63% 18 km
Di, 21.05. 18:20 63% -
Di, 21.05. 18:10 64% -
Di, 21.05. 18:00 63% 19 km
Di, 21.05. 17:30 56% 30 km
Di, 21.05. 17:00 45% 65 km
Di, 21.05. 16:30 42% 70 km
Di, 21.05. 16:00 46% 65 km
Ortszeit Niederschlagsmenge Niederschlagsart
Di, 21.05. 14:00 keine Meldung -
Di, 21.05. 8:00 0.2 l/m2 in 12 Std. -
Di, 21.05. 2:00 0.2 l/m2 in 6 Std. Regen
Mo, 20.05. 20:00 3 l/m2 in 12 Std. Regen
Mo, 20.05. 14:00 0.0 l/m2 in 6 Std. -
Mo, 20.05. 8:00 0.0 l/m2 in 12 Std. -
Mo, 20.05. 2:00 0.0 l/m2 in 6 Std. -
So, 19.05. 20:00 0.0 l/m2 in 12 Std. -
Ortszeit Niederschlagsmenge Niederschlagsart
Di, 21.05. 19:00 0.0 l/m2 in 1 Std. -
Di, 21.05. 18:50 keine Meldung -
Di, 21.05. 18:40 keine Meldung -
Di, 21.05. 18:30 0.0 l/m2 in 1 Std. -
Di, 21.05. 18:20 keine Meldung -
Di, 21.05. 18:10 keine Meldung -
Di, 21.05. 18:00 0.0 l/m2 in 1 Std. -
Di, 21.05. 17:30 0.0 l/m2 in 1 Std. -
Di, 21.05. 17:00 0.0 l/m2 in 1 Std. -
Di, 21.05. 16:30 0.0 l/m2 in 1 Std. -
Di, 21.05. 16:00 0.0 l/m2 in 1 Std. -
Ortszeit Stärke Spitze Richtung
km/h Bft. km/h Grad Sektor
Di, 21.05. 14:00 7 2 18 260° W
Di, 21.05. 8:00 7 2 18 30° NO
Di, 21.05. 2:00 9 2 37 70° O
Mo, 20.05. 20:00 19 3 41 30° NO
Mo, 20.05. 14:00 17 3 33 80° O
Mo, 20.05. 8:00 13 3 24 30° NO
Mo, 20.05. 2:00 11 2 25 30° NO
So, 19.05. 20:00 20 4 50 70° O
Ortszeit Stärke Spitze Richtung
km/h Bft. km/h Grad Sektor
Di, 21.05. 19:00 20 4 31 340° N
Di, 21.05. 18:50 20 4 - 340° N
Di, 21.05. 18:40 19 3 - 340° N
Di, 21.05. 18:30 18 3 29 340° N
Di, 21.05. 18:20 18 3 - 340° N
Di, 21.05. 18:10 17 3 - 340° N
Di, 21.05. 18:00 19 3 33 340° N
Di, 21.05. 17:30 20 4 31 320° NW
Di, 21.05. 17:00 11 2 22 300° NW
Di, 21.05. 16:30 9 2 20 320° NW
Di, 21.05. 16:00 9 2 22 320° NW
Ortszeit Untergrenze Bedeckung Gattung
total tief tief mittel hoch
Di, 21.05. 14:00 1080 m 6/8 2/8 - - -
Di, 21.05. 8:00 30 m 8/8 8/8 - - -
Di, 21.05. 2:00 180 m 8/8 8/8 - - -
Mo, 20.05. 20:00 600 m 7/8 2/8 - - -
Mo, 20.05. 14:00 1500 m 5/8 2/8 - - -
Mo, 20.05. 8:00 120 m 8/8 7/8 - - -
Mo, 20.05. 2:00 - 0/8 0/8 - - -
So, 19.05. 20:00 5400 m 6/8 2/8 - - -
Ortszeit Bedeckungsgrad in Achtel und Wolkenuntergrenze
Di, 21.05. 19:00 2(810m) 7(4200m) 8(5100m)
Di, 21.05. 18:50 2(810m) 7(4200m) 8(5100m)
Di, 21.05. 18:40 7(4200m) 8(5100m) 8(9000m)
Di, 21.05. 18:30 2(4500m) 8(5400m) 8(9000m)
Di, 21.05. 18:20 2(4500m) 8(5400m) 8(9000m)
Di, 21.05. 18:10 8(5400m) 8(9000m)
Di, 21.05. 18:00 8(5400m)
Di, 21.05. 17:30 4(1290m) 5(1500m) 8(5700m)
Di, 21.05. 17:00 1(1800m) 7(6000m)
Di, 21.05. 16:30 4(1500m) 7(6000m) 7(7200m)
Di, 21.05. 16:00 2(1500m) 8(6000m) 8(6600m)
Ortszeit Luftdruck NN (hPa) Tendenz (hPa in 3 Std.)
Di, 21.05. 14:00 1006 + 0,5
Di, 21.05. 8:00 1004 + 0,8
Di, 21.05. 2:00 1003 + 0,6
Mo, 20.05. 20:00 1002 + 0,5
Mo, 20.05. 14:00 1003 - 0,9
Mo, 20.05. 8:00 1004 - 0,1
Mo, 20.05. 2:00 1004 - 0,5
So, 19.05. 20:00 1004 - 0,2
Ortszeit Luftdruck NN (hPa) Tendenz (hPa in 3 Std.)
Di, 21.05. 19:00 1006 + 0,8
Di, 21.05. 18:50 1006 keine Meldung
Di, 21.05. 18:40 1006 keine Meldung
Di, 21.05. 18:30 1006 + 0,5
Di, 21.05. 18:20 1006 keine Meldung
Di, 21.05. 18:10 1006 keine Meldung
Di, 21.05. 18:00 1006 + 0,3
Di, 21.05. 17:30 1006 + 0,1
Di, 21.05. 17:00 1006 - 0,2
Di, 21.05. 16:30 1006 + 0,1
Di, 21.05. 16:00 1006 + 0,1
Ortszeit Schneehöhe (cm)
Di, 21.05. 14:00 -
Di, 21.05. 8:00 -
Di, 21.05. 2:00 -
Mo, 20.05. 20:00 -
Mo, 20.05. 14:00 -
Mo, 20.05. 8:00 -
Mo, 20.05. 2:00 -
So, 19.05. 20:00 -
Ortszeit Schneehöhe (cm)
Di, 21.05. 19:00 -
Di, 21.05. 18:50 -
Di, 21.05. 18:40 -
Di, 21.05. 18:30 -
Di, 21.05. 18:20 -
Di, 21.05. 18:10 -
Di, 21.05. 18:00 -
Di, 21.05. 17:30 -
Di, 21.05. 17:00 -
Di, 21.05. 16:30 -
Di, 21.05. 16:00 -
Link zu dieser Seite / Seite empfehlen

Das Wetter in ...